createdAt,value
2023-02-13T00:00:56.996Z,1.36
2023-02-13T00:03:28.933Z,1.37
2023-02-13T00:06:00.535Z,1.38
2023-02-13T00:08:30.783Z,1.37
2023-02-13T00:11:02.977Z,1.34
2023-02-13T00:13:35.949Z,1.34
2023-02-13T00:16:08.826Z,1.35
2023-02-13T00:18:40.790Z,1.37
2023-02-13T00:21:14.536Z,1.38
2023-02-13T00:23:46.398Z,1.40
2023-02-13T00:26:19.006Z,1.42
2023-02-13T00:28:51.903Z,1.43
2023-02-13T00:31:22.837Z,1.42
2023-02-13T00:33:54.541Z,1.38
2023-02-13T00:36:26.813Z,1.38
2023-02-13T00:38:58.499Z,1.38
2023-02-13T00:41:36.339Z,1.38
2023-02-13T00:44:10.129Z,1.37
2023-02-13T00:46:41.847Z,1.36
2023-02-13T00:49:13.684Z,1.37
2023-02-13T00:51:45.337Z,1.38
2023-02-13T00:54:15.473Z,1.39
2023-02-13T00:56:48.866Z,1.36
2023-02-13T00:59:18.984Z,1.39
2023-02-13T01:01:50.632Z,1.37
2023-02-13T01:04:20.792Z,1.40
2023-02-13T01:06:52.421Z,1.39
2023-02-13T01:09:22.616Z,1.42
2023-02-13T01:11:55.122Z,1.38
2023-02-13T01:14:26.813Z,1.40
2023-02-13T01:16:57.014Z,1.42
2023-02-13T01:19:28.640Z,1.39
2023-02-13T01:21:58.822Z,1.41
2023-02-13T01:24:33.230Z,1.38
2023-02-13T01:27:05.184Z,1.39
2023-02-13T01:29:35.351Z,1.41
2023-02-13T01:32:07.424Z,1.36
2023-02-13T01:34:39.138Z,1.38
2023-02-13T01:37:10.953Z,1.39
2023-02-13T01:39:41.116Z,1.39
2023-02-13T01:42:18.426Z,1.35
2023-02-13T01:44:54.181Z,1.38
2023-02-13T01:47:31.184Z,1.39
2023-02-13T01:50:08.338Z,1.39
2023-02-13T01:52:42.422Z,1.41
2023-02-13T01:55:15.041Z,1.42
2023-02-13T01:57:50.649Z,1.44
2023-02-13T02:00:25.030Z,1.45
2023-02-13T02:03:01.735Z,1.46
2023-02-13T02:05:36.195Z,1.48
2023-02-13T02:08:12.108Z,1.50
2023-02-13T02:10:44.031Z,1.52
2023-02-13T02:13:21.359Z,1.54
2023-02-13T02:15:53.513Z,1.56
2023-02-13T02:18:26.050Z,1.57
2023-02-13T02:21:28.642Z,1.58
2023-02-13T02:24:28.064Z,1.57
2023-02-13T02:27:25.627Z,1.55
2023-02-13T02:30:38.022Z,1.55
2023-02-13T02:33:16.886Z,1.54
2023-02-13T02:36:00.238Z,1.51
2023-02-13T02:38:49.320Z,1.53
2023-02-13T02:41:43.213Z,1.53
2023-02-13T02:44:35.003Z,1.52
2023-02-13T02:47:37.014Z,1.52
2023-02-13T02:50:22.448Z,1.52
2023-02-13T02:53:06.279Z,1.52
2023-02-13T02:55:49.101Z,1.54
2023-02-13T02:58:42.913Z,1.55
2023-02-13T03:01:36.811Z,1.57
2023-02-13T03:04:33.335Z,1.60
2023-02-13T03:07:08.622Z,1.60
2023-02-13T03:10:03.479Z,1.60
2023-02-13T03:12:58.202Z,1.62
2023-02-13T03:15:31.003Z,1.63
2023-02-13T03:18:20.507Z,1.65
2023-02-13T03:21:15.577Z,1.68
2023-02-13T03:23:56.394Z,1.68
2023-02-13T03:26:50.233Z,1.69
2023-02-13T03:30:03.522Z,1.70
2023-02-13T03:32:43.414Z,1.70
2023-02-13T03:35:45.863Z,1.72
2023-02-13T03:38:24.207Z,1.75
2023-02-13T03:41:20.262Z,1.77
2023-02-13T03:44:02.763Z,1.79
2023-02-13T03:46:38.664Z,1.81
2023-02-13T03:49:36.150Z,1.83
2023-02-13T03:52:12.324Z,1.84
2023-02-13T03:55:07.160Z,1.83
2023-02-13T03:57:59.771Z,1.82
2023-02-13T04:00:37.409Z,1.83
2023-02-13T04:03:15.063Z,1.82
2023-02-13T04:05:50.133Z,1.83
2023-02-13T04:08:22.130Z,1.85
2023-02-13T04:10:58.461Z,1.86
2023-02-13T04:13:36.374Z,1.88
2023-02-13T04:16:12.814Z,1.87
2023-02-13T04:18:46.289Z,1.88
2023-02-13T04:21:18.213Z,1.86
2023-02-13T04:23:49.873Z,1.85
2023-02-13T04:26:21.850Z,1.83
2023-02-13T04:28:51.961Z,1.79
2023-02-13T04:31:23.761Z,1.76
2023-02-13T04:33:55.460Z,1.79
2023-02-13T04:36:25.635Z,1.80
2023-02-13T04:38:57.253Z,1.76
2023-02-13T04:41:28.944Z,1.78
2023-02-13T04:43:59.142Z,1.81
2023-02-13T04:46:30.760Z,1.76
2023-02-13T04:49:00.887Z,1.78
2023-02-13T04:51:32.513Z,1.75
2023-02-13T04:54:02.648Z,1.78
2023-02-13T04:56:34.372Z,1.74
2023-02-13T04:59:04.509Z,1.77
2023-02-13T05:01:36.286Z,1.73
2023-02-13T05:04:08.248Z,1.76
2023-02-13T05:06:39.908Z,1.79
2023-02-13T05:09:11.010Z,1.82
2023-02-13T05:11:42.634Z,1.80
2023-02-13T05:14:12.805Z,1.84
2023-02-13T05:16:44.431Z,1.81
2023-02-13T05:19:14.566Z,1.84
2023-02-13T05:22:03.501Z,1.80
2023-02-13T05:24:35.323Z,1.83
2023-02-13T05:27:05.610Z,1.84
2023-02-13T05:29:37.225Z,1.81
2023-02-13T05:32:07.542Z,1.83
2023-02-13T05:34:39.286Z,1.80
2023-02-13T05:37:11.012Z,1.84
2023-02-13T05:39:41.160Z,1.86
2023-02-13T05:42:13.739Z,1.82
2023-02-13T05:44:45.407Z,1.85
2023-02-13T05:47:15.531Z,1.89
2023-02-13T05:49:47.137Z,1.85
2023-02-13T05:52:18.954Z,1.88
2023-02-13T05:54:49.096Z,1.90
2023-02-13T05:57:20.785Z,1.88
2023-02-13T05:59:50.912Z,1.93
2023-02-13T06:02:22.557Z,1.91
2023-02-13T06:04:52.799Z,1.95
2023-02-13T06:07:24.387Z,1.93
2023-02-13T06:09:54.647Z,1.97
2023-02-13T06:12:26.559Z,1.95
2023-02-13T06:14:58.204Z,1.96
2023-02-13T06:17:28.341Z,1.98
2023-02-13T06:20:00.120Z,1.96
2023-02-13T06:22:31.936Z,1.96
2023-02-13T06:25:03.769Z,1.99
2023-02-13T06:27:35.646Z,2.02
2023-02-13T06:30:09.101Z,2.04
2023-02-13T06:32:40.785Z,2.05
2023-02-13T06:35:10.893Z,2.08
2023-02-13T06:37:43.886Z,2.06
2023-02-13T06:40:17.621Z,2.10
2023-02-13T06:42:49.316Z,2.14
2023-02-13T06:45:19.990Z,2.18
2023-02-13T06:47:51.853Z,2.20
2023-02-13T06:50:23.724Z,2.28
2023-02-13T06:52:55.399Z,2.34
2023-02-13T06:55:25.513Z,2.38
2023-02-13T06:57:57.346Z,2.38
2023-02-13T07:00:29.096Z,2.44
2023-02-13T07:03:06.121Z,2.48
2023-02-13T07:05:40.166Z,2.53
2023-02-13T07:08:12.329Z,2.58
2023-02-13T07:10:44.172Z,2.64
2023-02-13T07:13:15.909Z,2.69
2023-02-13T07:15:48.383Z,2.72
2023-02-13T07:18:20.065Z,2.74
2023-02-13T07:20:50.210Z,2.77
2023-02-13T07:23:21.838Z,2.76
2023-02-13T07:25:51.980Z,2.78
2023-02-13T07:28:23.661Z,2.77
2023-02-13T07:30:56.149Z,2.80
2023-02-13T07:33:28.289Z,2.77
2023-02-13T07:35:59.945Z,2.80
2023-02-13T07:38:30.754Z,2.84
2023-02-13T07:41:03.690Z,2.81
2023-02-13T07:43:35.317Z,2.82
2023-02-13T07:46:05.834Z,2.84
2023-02-13T07:48:37.592Z,2.83
2023-02-13T07:51:09.380Z,2.92
2023-02-13T07:53:41.086Z,2.97
2023-02-13T07:56:11.856Z,3.02
2023-02-13T07:58:44.781Z,3.02
2023-02-13T08:01:19.821Z,3.10
2023-02-13T08:03:52.478Z,3.16
2023-02-13T08:06:24.986Z,3.21
2023-02-13T08:09:10.564Z,3.28
2023-02-13T08:11:55.406Z,3.35
2023-02-13T08:14:28.283Z,3.38
2023-02-13T08:17:01.779Z,3.43
2023-02-13T08:19:33.410Z,3.47
2023-02-13T08:22:03.489Z,3.52
2023-02-13T08:24:35.188Z,3.51
2023-02-13T08:27:06.802Z,3.55
2023-02-13T08:29:36.985Z,3.55
2023-02-13T08:32:09.020Z,3.52
2023-02-13T08:34:40.712Z,3.61
2023-02-13T08:37:10.811Z,3.72
2023-02-13T08:39:42.480Z,3.77
2023-02-13T08:42:15.724Z,3.88
2023-02-13T08:44:48.110Z,3.91
2023-02-13T08:47:18.280Z,3.98
2023-02-13T08:49:50.023Z,4.00
2023-02-13T08:52:21.853Z,4.10
2023-02-13T08:54:55.396Z,4.17
2023-02-13T08:57:25.532Z,4.21
2023-02-13T08:59:57.167Z,4.18
2023-02-13T09:02:27.322Z,4.23
2023-02-13T09:04:59.019Z,4.27
2023-02-13T09:07:29.376Z,4.37
2023-02-13T09:10:01.089Z,4.40
2023-02-13T09:12:32.799Z,4.44
2023-02-13T09:15:05.682Z,4.45
2023-02-13T09:17:37.392Z,4.48
2023-02-13T09:20:12.353Z,4.51
2023-02-13T09:22:44.396Z,4.57
2023-02-13T09:25:16.190Z,4.63
2023-02-13T09:27:47.833Z,4.67
2023-02-13T09:30:23.476Z,4.73
2023-02-13T09:32:56.353Z,4.74
2023-02-13T09:35:29.105Z,4.79
2023-02-13T09:38:02.811Z,4.86
2023-02-13T09:40:39.279Z,4.96
2023-02-13T09:43:18.312Z,5.02
2023-02-13T09:45:52.821Z,5.06
2023-02-13T09:48:31.417Z,5.12
2023-02-13T09:51:03.338Z,5.16
2023-02-13T09:53:36.284Z,5.20
2023-02-13T09:56:16.718Z,5.23
2023-02-13T09:58:50.905Z,5.26
2023-02-13T10:01:29.445Z,5.27
2023-02-13T10:04:26.442Z,5.26
2023-02-13T10:07:07.868Z,5.27
2023-02-13T10:09:40.956Z,5.24
2023-02-13T10:12:27.012Z,5.17
2023-02-13T10:15:17.075Z,5.20
2023-02-13T10:17:55.221Z,5.22
2023-02-13T10:20:33.089Z,5.20
2023-02-13T10:23:17.210Z,5.19
2023-02-13T10:25:53.422Z,5.18
2023-02-13T10:28:33.411Z,5.16
2023-02-13T10:31:10.312Z,5.12
2023-02-13T10:33:49.233Z,5.09
2023-02-13T10:36:24.320Z,5.09
2023-02-13T10:39:02.363Z,5.13
2023-02-13T10:41:46.835Z,5.21
2023-02-13T10:44:34.356Z,5.29
2023-02-13T10:47:16.034Z,5.33
2023-02-13T10:49:58.532Z,5.33
2023-02-13T10:52:40.629Z,5.32
2023-02-13T10:55:32.449Z,5.28
2023-02-13T10:58:09.225Z,5.25
2023-02-13T11:00:46.900Z,5.16
2023-02-13T11:03:24.424Z,5.17
2023-02-13T11:05:58.443Z,5.16
2023-02-13T11:08:34.310Z,5.17
2023-02-13T11:11:26.142Z,5.18
2023-02-13T11:14:08.450Z,5.19
2023-02-13T11:16:55.524Z,5.15
2023-02-13T11:19:33.473Z,5.17
2023-02-13T11:22:09.475Z,5.24
2023-02-13T11:24:43.579Z,5.26
2023-02-13T11:27:16.245Z,5.23
2023-02-13T11:29:58.230Z,5.23
2023-02-13T11:32:30.911Z,5.24
2023-02-13T11:35:26.679Z,5.30
2023-02-13T11:41:10.992Z,5.45
2023-02-13T11:43:50.904Z,5.46
2023-02-13T11:46:25.595Z,5.46
2023-02-13T11:49:05.236Z,5.46
2023-02-13T11:51:46.103Z,5.44
2023-02-13T11:54:39.175Z,5.42
2023-02-13T11:57:23.522Z,5.39
2023-02-13T11:59:55.928Z,5.33
2023-02-13T12:02:29.161Z,5.29
2023-02-13T12:05:18.636Z,5.27
2023-02-13T12:07:50.650Z,5.25
2023-02-13T12:10:28.162Z,5.25
2023-02-13T12:13:07.661Z,5.22
2023-02-13T12:15:39.776Z,5.19
2023-02-13T12:18:18.196Z,5.17
2023-02-13T12:21:02.792Z,5.15
2023-02-13T12:23:47.532Z,5.12
2023-02-13T12:26:30.805Z,5.13
2023-02-13T12:29:23.920Z,5.13
2023-02-13T12:32:10.622Z,5.15
2023-02-13T12:35:07.865Z,5.15
2023-02-13T12:37:56.497Z,5.17
2023-02-13T12:40:58.648Z,5.21
2023-02-13T12:43:45.538Z,5.23
2023-02-13T12:46:23.446Z,5.20
2023-02-13T12:49:04.780Z,5.20
2023-02-13T12:51:48.196Z,5.20
2023-02-13T12:54:45.057Z,5.21
2023-02-13T12:57:25.236Z,5.20
2023-02-13T13:00:23.648Z,5.20
2023-02-13T13:03:08.812Z,5.17
2023-02-13T13:06:08.824Z,5.13
2023-02-13T13:08:58.805Z,5.10
2023-02-13T13:11:54.058Z,5.09
2023-02-13T13:14:35.731Z,5.08
2023-02-13T13:17:15.879Z,5.07
2023-02-13T13:19:54.182Z,5.05
2023-02-13T13:22:34.205Z,5.04
2023-02-13T13:25:19.953Z,5.02
2023-02-13T13:27:57.336Z,4.99
2023-02-13T13:30:35.342Z,4.97
2023-02-13T13:33:17.146Z,4.94
2023-02-13T13:35:59.812Z,4.90
2023-02-13T13:38:43.963Z,4.86
2023-02-13T13:41:20.400Z,4.81
2023-02-13T13:44:06.296Z,4.77
2023-02-13T16:46:31.901Z,2.28
2023-02-13T16:49:19.144Z,2.37
2023-02-13T16:51:55.401Z,2.36
2023-02-13T16:54:41.295Z,2.34
2023-02-13T16:57:24.477Z,2.35
2023-02-13T17:00:04.868Z,2.36
2023-02-13T17:02:38.225Z,2.40
2023-02-13T17:05:21.335Z,2.42
2023-02-13T17:07:57.703Z,2.42
2023-02-13T17:10:33.644Z,2.44
2023-02-13T17:13:13.922Z,2.47
2023-02-13T17:15:47.700Z,2.48
2023-02-13T17:18:19.427Z,2.49
2023-02-13T17:20:50.350Z,2.51
2023-02-13T17:23:24.247Z,2.46
2023-02-13T17:25:56.272Z,2.48
2023-02-13T17:28:30.293Z,2.52
2023-02-13T17:31:03.068Z,2.54
2023-02-13T17:33:35.621Z,2.56
2023-02-13T17:36:08.650Z,2.57
2023-02-13T17:38:40.423Z,2.59
2023-02-13T17:41:16.624Z,2.61
2023-02-13T17:43:48.400Z,2.63
2023-02-13T17:46:18.678Z,2.64
2023-02-13T17:48:50.645Z,2.60
2023-02-13T17:51:22.360Z,2.61
2023-02-13T17:53:52.616Z,2.64
2023-02-13T17:56:25.432Z,2.60
2023-02-13T17:58:58.132Z,2.61
2023-02-13T18:01:32.148Z,2.60
2023-02-13T18:04:04.007Z,2.60
2023-02-13T18:06:34.293Z,2.59
2023-02-13T18:09:06.114Z,2.54
2023-02-13T18:11:37.906Z,2.55
2023-02-13T18:14:09.750Z,2.56
2023-02-13T18:16:41.572Z,2.58
2023-02-13T18:19:14.045Z,2.60
2023-02-13T18:21:45.704Z,2.58
2023-02-13T18:24:15.833Z,2.59
2023-02-13T18:26:47.745Z,2.53
2023-02-13T18:29:19.637Z,2.53
2023-02-13T18:31:53.295Z,2.53
2023-02-13T18:34:25.937Z,2.54
2023-02-13T18:36:57.794Z,2.55
2023-02-13T18:39:29.185Z,2.57
2023-02-13T18:42:01.241Z,2.54
2023-02-13T18:44:33.355Z,2.55
2023-02-13T18:47:05.239Z,2.58
2023-02-13T18:49:37.226Z,2.60
2023-02-13T18:52:09.548Z,2.61
2023-02-13T18:54:41.336Z,2.62
2023-02-13T18:57:11.528Z,2.63
2023-02-13T18:59:43.269Z,2.57
2023-02-13T19:02:15.197Z,2.57
2023-02-13T19:04:47.127Z,2.56
2023-02-13T19:07:19.172Z,2.56
2023-02-13T19:09:50.968Z,2.56
2023-02-13T19:12:22.657Z,2.55
2023-02-13T19:14:54.105Z,2.55
2023-02-13T19:17:26.079Z,2.50
2023-02-13T19:19:57.713Z,2.51
2023-02-13T19:22:29.779Z,2.52
2023-02-13T19:25:02.533Z,2.51
2023-02-13T19:27:36.495Z,2.50
2023-02-13T19:30:10.711Z,2.50
2023-02-13T19:32:42.747Z,2.50
2023-02-13T19:35:14.486Z,2.52
2023-02-13T19:37:44.903Z,2.53
2023-02-13T19:40:16.721Z,2.49
2023-02-13T19:42:48.671Z,2.52
2023-02-13T19:45:20.507Z,2.55
2023-02-13T19:47:54.051Z,2.57
2023-02-13T19:50:25.736Z,2.60
2023-02-13T19:52:57.867Z,2.62
2023-02-13T19:55:32.320Z,2.64
2023-02-13T19:58:04.776Z,2.65
2023-02-13T20:00:36.662Z,2.67
2023-02-13T20:03:09.333Z,2.68
2023-02-13T20:05:42.425Z,2.68
2023-02-13T20:08:16.545Z,2.70
2023-02-13T20:10:48.723Z,2.71
2023-02-13T20:13:20.475Z,2.71
2023-02-13T20:15:51.219Z,2.71
2023-02-13T20:18:23.336Z,2.66
2023-02-13T20:20:55.241Z,2.65
2023-02-13T20:23:26.996Z,2.65
2023-02-13T20:25:57.438Z,2.66
2023-02-13T20:28:29.516Z,2.61
2023-02-13T20:31:03.801Z,2.60
2023-02-13T20:33:38.596Z,2.58
2023-02-13T20:36:16.209Z,2.55
2023-02-13T20:38:49.310Z,2.52
2023-02-13T20:41:22.849Z,2.49
2023-02-13T20:43:58.777Z,2.47
2023-02-13T20:46:32.408Z,2.44
2023-02-13T20:49:04.410Z,2.42
2023-02-13T20:51:36.753Z,2.40
2023-02-13T20:54:08.678Z,2.38
2023-02-13T20:56:40.562Z,2.37
2023-02-13T20:59:12.686Z,2.36
2023-02-13T21:01:45.638Z,2.35
2023-02-13T21:04:19.314Z,2.34
2023-02-13T21:06:51.237Z,2.32
2023-02-13T21:09:22.946Z,2.31
2023-02-13T21:11:54.741Z,2.32
2023-02-13T21:14:26.749Z,2.31
2023-02-13T21:16:58.448Z,2.30
2023-02-13T21:19:28.594Z,2.31
2023-02-13T21:22:11.044Z,2.28
2023-02-13T21:24:44.070Z,2.29
2023-02-13T21:27:15.847Z,2.31
2023-02-13T21:29:47.592Z,2.33
2023-02-13T21:32:21.634Z,2.34
2023-02-13T21:34:55.317Z,2.35
2023-02-13T21:37:27.224Z,2.35
2023-02-13T21:39:59.958Z,2.34
2023-02-13T21:42:31.645Z,2.34
2023-02-13T21:45:01.918Z,2.34
2023-02-13T21:47:34.296Z,2.30
2023-02-13T21:50:08.363Z,2.32
2023-02-13T21:52:40.164Z,2.33
2023-02-13T21:55:11.994Z,2.34
2023-02-13T21:57:43.634Z,2.33
2023-02-13T22:00:17.667Z,2.31
2023-02-13T22:02:49.345Z,2.31
2023-02-13T22:05:21.178Z,2.31
2023-02-13T22:08:08.625Z,2.33
2023-02-13T22:10:40.408Z,2.29
2023-02-13T22:13:12.222Z,2.31
2023-02-13T22:15:43.987Z,2.30
2023-02-13T22:18:15.847Z,2.29
2023-02-13T22:20:47.685Z,2.29
2023-02-13T22:23:19.369Z,2.29
2023-02-13T22:25:51.776Z,2.27
2023-02-13T22:28:23.434Z,2.25
2023-02-13T22:30:53.742Z,2.24
2023-02-13T22:33:25.913Z,2.19
2023-02-13T22:35:58.120Z,2.19
2023-02-13T22:38:32.238Z,2.18
2023-02-13T22:41:09.450Z,2.17
2023-02-13T22:43:41.939Z,2.17
2023-02-13T22:46:18.120Z,2.14
2023-02-13T22:48:52.004Z,2.12
2023-02-13T22:51:26.459Z,2.12
2023-02-13T22:54:00.251Z,2.13
2023-02-13T22:56:34.368Z,2.14
2023-02-13T22:59:06.354Z,2.14
2023-02-13T23:01:38.315Z,2.14
2023-02-13T23:04:10.237Z,2.15
2023-02-13T23:06:41.962Z,2.16
2023-02-13T23:09:13.750Z,2.17
2023-02-13T23:12:09.622Z,2.18
2023-02-13T23:14:41.308Z,2.15
2023-02-13T23:17:30.927Z,2.17
2023-02-13T23:20:02.710Z,2.19
2023-02-13T23:22:34.756Z,2.20
2023-02-13T23:25:08.911Z,2.21
2023-02-13T23:27:41.040Z,2.21
2023-02-13T23:30:15.004Z,2.21
2023-02-13T23:32:46.875Z,2.20
2023-02-13T23:35:18.839Z,2.20
2023-02-13T23:37:50.673Z,2.20
2023-02-13T23:40:23.084Z,2.19
2023-02-13T23:42:54.782Z,2.20
2023-02-13T23:45:31.140Z,2.19
2023-02-13T23:48:02.811Z,2.13
2023-02-13T23:50:33.005Z,2.13
2023-02-13T23:53:04.779Z,2.09
2023-02-13T23:55:36.508Z,2.10
2023-02-13T23:58:08.132Z,2.11
